Flugplatz - Wetter - Augsburg

[Quelle: ADDS]
METAR
EDMA 272250Z AUTO 25013KT 9999 SCT008/// BKN015/// OVC020/// 02/01 Q1026 =
EDMA 271718Z 2718/2803 27010KT 9999 FEW012 BKN020 PROB30 TEMPO 2718/2719 4000 RASN PROB30 TEMPO 2719/2724 4000 -RADZ BKN012 PROB40 TEMPO 2800/2803 3000 -SHRASN BKN012TCU
TAF
EDMA 271718Z 2718/2803 27010KT 9999 FEW012 BKN020 PROB30 TEMPO 2718/2719 4000 RASN PROB30 TEMPO 2719/2724 4000 -RADZ BKN012 PROB40 TEMPO 2800/2803 3000 -SHRASN BKN012TCU =
SR / SS: 06:52 / 16:08 UTC (Augsburg 2022-01-27)

Flugplatz - Wetter - Laupheim

[Quelle: ADDS]
METAR
ETHL 272220Z 22013KT 9000 BKN014 BKN040 01/M01 Q1027 GRN =
ETHL 271720Z 2718/2803 23007KT 9000 NSW SCT010 BKN020 BECMG 2718/2719 24010KT 4000 -RASN SCT005 BKN015 TEMPO 2718/2724 23012KT 2000 SNRA BKN005
TAF
ETHL 271720Z 2718/2803 23007KT 9000 NSW SCT010 BKN020 BECMG 2718/2719 24010KT 4000 -RASN SCT005 BKN015 TEMPO 2718/2724 23012KT 2000 SNRA BKN005 =
SR / SS: 06:55 / 16:13 UTC (Laupheim 2022-01-27)

Flugplatz - Wetter - Memmingen

[Quelle: ADDS]
METAR
EDJA 272250Z AUTO 23017KT 6000 // SCT006/// BKN011/// OVC034/// 00/M01 Q1027 =
EDJA 271700Z 2718/2803 24010KT 9999 BKN020 PROB30 TEMPO 2718/2724 4000 RASN BKN012 PROB30 TEMPO 2800/2803 BKN012
TAF
EDJA 271700Z 2718/2803 24010KT 9999 BKN020 PROB30 TEMPO 2718/2724 4000 RASN BKN012 PROB30 TEMPO 2800/2803 BKN012 =
SR / SS: 06:51 / 16:12 UTC (Memmingen 2022-01-27)

Flugplatz - Wetter - Neuburg/Donau

[Quelle: ADDS]
METAR
ETSN 272309Z 27013KT 9999 -RA BKN011 03/01 Q1025 GRN =
ETSN 272006Z 2721/2806 25012KT 9999 -RA SCT015 BKN030 TEMPO 2721/2803 26015KT 4000 -RADZ BKN008 BKN015 TEMPO 2803/2806 27015KT 2500 SHRASN BKN006 BKN012TCU BY ETGL
TAF
ETSN 272006Z 2721/2806 25012KT 9999 -RA SCT015 BKN030 TEMPO 2721/2803 26015KT 4000 -RADZ BKN008 BKN015 TEMPO 2803/2806 27015KT 2500 SHRASN BKN006 BKN012TCU BY ETGL =
SR / SS: 06:50 / 16:06 UTC (Neuburg 2022-01-27)

Flugplatz - Wetter - Stuttgart

[Quelle: ADDS]
METAR
EDDS 272250Z 25009KT 9999 -RA FEW006 OVC016 03/02 Q1028 =
AMD EDDS 272010Z 2720/2818 24009KT 9000 OVC020 TEMPO 2720/2803 2000 DZ OVC008 PROB30 TEMPO 2806/2809 4000 -SN OVC012
TAF
AMD EDDS 272010Z 2720/2818 24009KT 9000 OVC020 TEMPO 2720/2803 2000 DZ OVC008 PROB30 TEMPO 2806/2809 4000 -SN OVC012 =
SR / SS: 06:58 / 16:14 UTC (Stuttgart 2022-01-27)

Flugplatz - Wetter - Niederstetten

[Quelle: ADDS]
METAR
ETHN 272244Z 27012KT 1800 -SN BR OVC000 00/00 Q1025 RED =
ETHN 271515Z 2715/2724 26010KT 3000 BR OVC002 TEMPO 2715/2724 26015KT 0500 -FZDZ VV001 OVC002
TAF
ETHN 271515Z 2715/2724 26010KT 3000 BR OVC002 TEMPO 2715/2724 26015KT 0500 -FZDZ VV001 OVC002 =
SR / SS: 06:59 / 16:09 UTC (Niederstetten 2022-01-27)